Falcon Fld Information

FAA: FFZ - ICAO: KFFZ

Falcon Fld (Airport) Location

State Arizona
County Maricopa
City Mesa
Falcon Fld (Airport) is 5 miles northeast of Mesa, AZ.
Latitude 33-27-39.0260N
Longitude 111-43-41.9710W
Elevation 1,394ft

Falcon Fld METARs

METAR KFFZ 301654Z 00000KT 10SM CLR 17/00 A3009 RMK AO2 SLP174 T01670000 $
Altimeter 30.09"
Temperature 16.7°C (62.1°F)
Wind 0° at 0KT
Clouds Skies are clear.
Visibility 10.0mi
Time observed: 2021-11-30T16:54:00Z

Falcon Fld (Airport) Details

Status Operational
Activation December 1941
Ownership Public
Usage Public
Chart PHOENIX
ATC on-site Yes
Beacon schedule sunset-sunrise
Beacon color clear green

Falcon Fld (Airport) Contacts

Owner CITY OF MESA
Owner address BOX 1466, MEZA, AZ 85211-1466
Owner phone 480-644-2444
Manager SCOTT TAYLOR
Manager address 601 NEVADA HIGHWAY, BOULDER CITY, NV 89005
Manager phone (702) 293-2011

Falcon Fld Radio Frequencies

Falcon Fld (Airport) Radio Frequencies

UNICOM 122.95
Common traffic advisory frequency (CTAF) 124.6